Date,TemperatureHighF,TemperatureAvgF,TemperatureLowF,DewpointHighF,DewpointAvgF,DewpointLowF,HumidityHigh,HumidityAvg,HumidityLow,PressureMaxIn,PressureMinIn,WindSpeedMaxMPH,WindSpeedAvgMPH,GustSpeedMaxMPH,PrecipitationSumIn
2013-2-1,44.0,35.2,28.0,31.0,28.9,26.0,93,79,58,0.00,40.00,0,-999,0,0.00
2013-2-2,52.0,35.6,26.0,29.0,25.3,23.0,90,69,38,0.00,40.00,0,-999,0,0.00
2013-2-3,34.0,30.4,27.0,29.0,26.5,24.0,92,86,82,0.00,40.00,0,-999,0,0.00
2013-2-4,40.0,33.5,29.0,32.0,29.9,26.0,94,87,72,0.00,40.00,0,-999,0,0.00
2013-2-5,34.0,32.0,30.0,30.0,27.6,25.0,89,84,79,0.00,40.00,0,-999,0,0.00
2013-2-6,35.0,31.3,29.0,29.0,26.7,25.0,91,83,68,0.00,40.00,0,-999,0,0.00
2013-2-7,35.0,27.3,19.0,27.0,21.5,16.0,89,79,52,0.00,40.00,0,-999,0,0.00
2013-2-8,40.0,25.1,16.0,23.0,18.2,12.0,94,76,50,0.00,40.00,0,-999,0,0.00
2013-2-9,33.0,26.5,22.0,27.0,24.0,20.0,95,90,77,0.00,40.00,0,-999,0,0.00
2013-2-10,41.0,29.8,22.0,31.0,25.5,20.0,94,85,65,0.00,40.00,0,-999,0,0.00
2013-2-11,31.0,27.9,26.0,29.0,26.3,25.0,96,94,90,0.00,40.00,0,-999,0,0.00
2013-2-12,35.0,32.4,29.0,32.0,29.1,25.0,93,88,83,0.00,40.00,0,-999,0,0.00
2013-2-14,32.0,29.5,27.0,31.0,28.5,26.0,96,96,95,0.00,40.00,0,-999,0,0.00
2013-2-15,31.0,31.0,31.0,29.0,28.5,28.0,93,90,88,0.00,40.00,0,-999,0,0.00
2013-2-16,35.0,29.4,26.0,32.0,26.6,23.0,93,89,87,0.00,40.00,0,-999,0,0.00
2013-2-17,29.0,25.6,20.0,23.0,21.0,16.0,89,83,73,0.00,40.00,0,-999,0,0.00
2013-2-18,30.0,24.0,19.0,24.0,19.7,16.0,88,83,77,0.00,40.00,0,-999,0,0.00
2013-2-19,33.0,25.0,17.0,23.0,19.6,14.0,87,80,66,0.00,40.00,0,-999,0,0.00
2013-2-20,29.0,26.2,23.0,23.0,21.8,21.0,91,83,74,0.00,40.00,0,-999,0,0.00
2013-2-21,29.0,27.5,26.0,25.0,23.5,22.0,86,85,84,0.00,40.00,0,-999,0,0.00
2013-2-22,31.0,28.2,23.0,28.0,25.5,19.0,92,90,86,0.00,40.00,0,-999,0,0.00
2013-2-23,28.0,25.2,23.0,23.0,21.4,20.0,90,85,80,0.00,40.00,0,-999,0,0.00
2013-2-24,31.0,27.5,24.0,27.0,24.5,21.0,91,88,81,0.00,40.00,0,-999,0,0.00
2013-2-25,28.0,26.1,23.0,26.0,23.1,19.0,91,88,84,0.00,40.00,0,-999,0,0.00
2013-2-26,38.0,26.9,23.0,26.0,21.4,18.0,87,80,62,0.00,40.00,0,-999,0,0.00
2013-2-27,42.0,32.9,29.0,29.0,26.4,25.0,88,77,55,0.00,40.00,0,-999,0,0.00
2013-2-28,40.0,36.2,31.0,37.0,33.4,29.0,93,89,84,0.00,40.00,0,-999,0,0.00